Time;durP1;ratioP1;P1;durP2;ratioP2;P2;SDS_P1;SDS_P2;PMS_P1;PMS_P2;Temp;Humidity;BMP_temperature;BMP_pressure;BME280_temperature;BME280_humidity;BME280_pressure;Samples;Min_cycle;Max_cycle;Signal;HPM_P1;HPM_P2
2022/06/19 00:00:49;;;;;;;9.38;4.97;;;;;;;22.41;63.94;100536.19;4988385;28;20053;-57
2022/06/19 00:03:31;;;;;;;10.13;4.63;;;;;;;22.35;64.04;100523.47;5007101;28;20046;-59
2022/06/19 00:05:59;;;;;;;8.07;3.88;;;;;;;22.32;63.93;100519.25;4997843;28;20090;-59
2022/06/19 00:08:27;;;;;;;7.68;4.80;;;;;;;22.30;64.91;100521.28;5005859;28;20053;-59
2022/06/19 00:10:55;;;;;;;12.23;5.10;;;;;;;22.28;64.51;100522.47;5005737;28;20053;-58
2022/06/19 00:13:22;;;;;;;11.18;4.75;;;;;;;22.23;64.76;100515.75;5003875;28;20511;-59
2022/06/19 00:15:49;;;;;;;12.52;4.80;;;;;;;22.19;65.29;100509.03;5001564;28;20050;-59
2022/06/19 00:18:17;;;;;;;9.10;4.70;;;;;;;22.15;65.57;100507.72;5006641;28;20051;-57
2022/06/19 00:20:44;;;;;;;9.43;5.35;;;;;;;22.12;65.47;100485.78;5004180;28;20050;-57
2022/06/19 00:23:11;;;;;;;8.25;4.65;;;;;;;22.08;65.83;100484.41;5003047;28;20076;-59
2022/06/19 00:25:38;;;;;;;10.15;5.30;;;;;;;22.06;66.09;100479.19;5019643;28;20060;-57
2022/06/19 00:28:06;;;;;;;9.20;5.22;;;;;;;22.03;65.91;100481.41;5008546;28;20537;-57
2022/06/19 00:30:34;;;;;;;10.98;5.35;;;;;;;21.99;66.41;100475.53;5001957;28;20160;-60
2022/06/19 00:33:02;;;;;;;11.70;5.18;;;;;;;21.97;66.69;100480.19;5001794;28;20072;-56
2022/06/19 00:35:29;;;;;;;11.27;4.95;;;;;;;21.95;66.85;100482.22;5003991;28;20510;-54
2022/06/19 00:37:56;;;;;;;14.77;4.82;;;;;;;21.91;66.44;100467.47;5008142;28;20391;-55
2022/06/19 00:40:28;;;;;;;9.70;5.20;;;;;;;21.89;66.50;100480.22;5004604;28;20529;-58
2022/06/19 00:42:56;;;;;;;7.43;5.35;;;;;;;21.86;67.08;100477.88;4998108;28;20046;-60
2022/06/19 00:45:32;;;;;;;8.57;5.30;;;;;;;21.82;67.33;100460.44;5003515;28;20513;-59
2022/06/19 00:48:22;;;;;;;12.00;6.43;;;;;;;21.77;67.13;100449.41;5014622;28;20056;-59
2022/06/19 00:50:51;;;;;;;11.23;5.05;;;;;;;21.72;67.14;100445.38;5010273;28;20053;-58
2022/06/19 00:53:24;;;;;;;9.13;4.65;;;;;;;21.70;67.13;100438.50;5007129;28;20061;-56
2022/06/19 00:55:51;;;;;;;7.85;5.15;;;;;;;21.67;67.32;100423.59;4988697;28;20052;-57
2022/06/19 00:58:21;;;;;;;9.00;5.07;;;;;;;21.64;68.08;100421.25;5013890;28;20558;-57
2022/06/19 01:00:51;;;;;;;9.73;5.47;;;;;;;21.61;68.73;100415.38;4992637;28;20052;-58
2022/06/19 01:03:22;;;;;;;10.15;5.40;;;;;;;21.58;69.01;100421.09;5010923;28;20494;-59
2022/06/19 01:05:49;;;;;;;11.93;5.22;;;;;;;21.54;68.82;100423.25;5008703;28;20380;-56
2022/06/19 01:08:17;;;;;;;8.15;4.85;;;;;;;21.50;68.82;100424.59;5009776;28;20049;-57
2022/06/19 01:10:48;;;;;;;9.75;5.07;;;;;;;21.47;68.65;100422.25;5011312;28;20049;-58
2022/06/19 01:13:18;;;;;;;8.32;4.57;;;;;;;21.43;69.14;100429.78;5007224;28;20057;-58
2022/06/19 01:15:45;;;;;;;9.85;5.15;;;;;;;21.41;69.17;100430.94;5006520;28;20413;-59
2022/06/19 01:18:13;;;;;;;10.27;5.25;;;;;;;21.38;69.20;100433.94;5004269;28;20066;-58
2022/06/19 01:20:41;;;;;;;9.25;5.20;;;;;;;21.36;69.04;100427.94;4998160;28;20076;-57
2022/06/19 01:23:33;;;;;;;11.32;5.70;;;;;;;21.35;69.01;100413.72;5009184;28;20061;-55
2022/06/19 01:26:00;;;;;;;9.82;4.60;;;;;;;21.33;69.36;100406.84;5010249;28;20046;-58
2022/06/19 01:31:34;;;;;;;12.18;5.80;;;;;;;21.30;70.06;100402.63;5006835;28;20553;-54
2022/06/19 01:34:32;;;;;;;10.52;5.28;;;;;;;21.27;70.08;100394.09;5004413;28;20054;-56
2022/06/19 01:37:04;;;;;;;7.93;5.45;;;;;;;21.24;70.16;100380.00;5001413;28;20164;-57
2022/06/19 01:39:38;;;;;;;10.73;4.88;;;;;;;21.21;70.41;100372.34;5028156;28;20481;-55
2022/06/19 01:42:07;;;;;;;12.55;5.90;;;;;;;21.18;70.99;100364.63;5002244;28;20061;-55
2022/06/19 01:44:36;;;;;;;7.63;5.07;;;;;;;21.15;71.14;100362.25;5008925;28;20071;-56
2022/06/19 01:47:03;;;;;;;13.75;5.50;;;;;;;21.12;71.00;100340.34;5010846;28;20203;-58
2022/06/19 01:49:33;;;;;;;8.98;4.78;;;;;;;21.09;70.90;100344.19;5015676;28;20053;-55
2022/06/19 01:52:03;;;;;;;12.05;5.78;;;;;;;21.07;71.09;100346.19;4998755;28;20062;-58
2022/06/19 01:54:37;;;;;;;10.52;5.22;;;;;;;21.04;70.98;100332.31;5004723;28;20056;-57
2022/06/19 01:57:06;;;;;;;6.97;5.55;;;;;;;21.03;71.39;100323.47;5001262;28;20074;-58
2022/06/19 01:59:34;;;;;;;9.23;5.53;;;;;;;21.03;71.36;100317.25;4998299;28;20045;-57
2022/06/19 02:02:04;;;;;;;9.02;5.22;;;;;;;21.01;71.57;100317.41;5001668;28;20070;-58
2022/06/19 02:04:32;;;;;;;7.25;4.75;;;;;;;21.01;71.56;100311.22;5001269;28;20046;-60
2022/06/19 02:07:03;;;;;;;11.45;5.72;;;;;;;20.99;71.78;100314.09;4997979;28;20065;-58
2022/06/19 02:09:30;;;;;;;10.73;5.93;;;;;;;20.98;71.61;100313.25;5009731;28;20061;-56
2022/06/19 02:11:58;;;;;;;7.78;5.25;;;;;;;20.97;71.19;100308.03;5002400;28;20064;-59
2022/06/19 02:14:25;;;;;;;7.25;4.90;;;;;;;20.95;71.53;100312.75;5009314;28;20521;-58
2022/06/19 02:16:52;;;;;;;11.32;5.30;;;;;;;20.93;71.60;100301.34;5011579;28;20041;-58
2022/06/19 02:19:20;;;;;;;6.28;4.97;;;;;;;20.91;71.48;100306.88;5004087;28;20063;-53
2022/06/19 02:21:55;;;;;;;12.00;5.50;;;;;;;20.89;71.55;100303.53;5008117;28;20042;-59
2022/06/19 02:24:26;;;;;;;6.03;4.85;;;;;;;20.89;71.58;100300.88;5009967;28;20778;-56
2022/06/19 02:26:55;;;;;;;7.68;5.20;;;;;;;20.87;71.61;100288.63;4998951;28;20049;-58
2022/06/19 02:29:23;;;;;;;7.10;4.85;;;;;;;20.85;72.15;100279.91;5006501;28;20054;-57
2022/06/19 02:31:54;;;;;;;9.20;5.82;;;;;;;20.83;72.08;100276.59;5006554;28;20053;-61
2022/06/19 02:34:27;;;;;;;9.27;5.50;;;;;;;20.80;72.27;100267.03;5003997;28;20062;-60
2022/06/19 02:36:57;;;;;;;10.13;5.03;;;;;;;20.78;71.62;100261.03;5004143;28;20061;-56
2022/06/19 02:39:35;;;;;;;12.00;4.85;;;;;;;20.79;72.08;100261.88;5006059;28;20057;-57
2022/06/19 02:42:27;;;;;;;6.93;5.13;;;;;;;20.76;72.59;100252.34;5015368;28;20057;-57
2022/06/19 02:44:57;;;;;;;9.32;5.22;;;;;;;20.76;72.53;100243.47;5010701;28;20168;-52
2022/06/19 02:47:26;;;;;;;9.32;5.60;;;;;;;20.73;72.69;100245.47;5015359;28;20061;-56
2022/06/19 02:49:53;;;;;;;7.47;5.38;;;;;;;20.73;72.48;100237.44;5015953;28;20065;-56
2022/06/19 02:52:21;;;;;;;13.88;5.40;;;;;;;20.71;72.18;100231.44;5015144;28;20058;-58
2022/06/19 02:54:48;;;;;;;11.25;5.30;;;;;;;20.70;72.83;100226.25;5011128;28;20049;-58
2022/06/19 02:57:16;;;;;;;8.10;4.75;;;;;;;20.70;72.86;100223.56;5009774;28;20054;-56
2022/06/19 02:59:44;;;;;;;11.95;5.57;;;;;;;20.69;72.71;100222.72;5006697;28;20058;-55
2022/06/19 03:02:12;;;;;;;9.63;5.13;;;;;;;20.68;72.89;100212.22;5010620;28;20046;-57
2022/06/19 03:04:45;;;;;;;10.38;5.68;;;;;;;20.70;72.96;100210.19;5014477;28;20129;-56
2022/06/19 03:07:13;;;;;;;8.77;5.53;;;;;;;20.71;72.63;100214.53;5008741;28;20065;-56
2022/06/19 03:09:40;;;;;;;6.95;4.90;;;;;;;20.72;72.86;100209.03;5009930;28;20062;-56
2022/06/19 03:12:09;;;;;;;13.45;5.55;;;;;;;20.73;72.79;100210.69;5015273;28;20054;-55
2022/06/19 03:14:41;;;;;;;14.45;6.22;;;;;;;20.76;73.03;100216.72;5031069;23;20080;-54
2022/06/19 03:17:16;;;;;;;10.60;5.53;;;;;;;20.78;72.66;100204.03;5010995;28;20053;-57
2022/06/19 03:19:46;;;;;;;7.90;5.53;;;;;;;20.79;72.80;100205.69;5015170;28;20278;-57
2022/06/19 03:22:14;;;;;;;10.52;5.97;;;;;;;20.79;73.02;100195.00;5011454;28;20046;-55
2022/06/19 03:24:41;;;;;;;8.60;5.38;;;;;;;20.80;72.78;100193.97;5011120;28;20057;-51
2022/06/19 03:27:10;;;;;;;12.93;5.40;;;;;;;20.80;72.90;100189.47;5012006;28;20301;-55
2022/06/19 03:29:37;;;;;;;9.82;5.38;;;;;;;20.82;72.98;100179.44;5005027;28;20050;-55
2022/06/19 03:32:04;;;;;;;9.55;5.47;;;;;;;20.84;72.65;100179.25;5009501;28;20059;-57
2022/06/19 03:34:32;;;;;;;11.52;5.97;;;;;;;20.85;72.58;100167.56;5005951;28;20064;-58
2022/06/19 03:36:59;;;;;;;11.57;5.53;;;;;;;20.89;72.45;100158.19;5009490;28;20062;-54
2022/06/19 03:39:26;;;;;;;8.23;5.47;;;;;;;20.90;72.51;100152.69;5010176;28;20373;-54
2022/06/19 03:41:53;;;;;;;6.95;5.43;;;;;;;20.92;72.17;100150.66;5003397;28;20402;-52
2022/06/19 03:44:21;;;;;;;8.25;5.88;;;;;;;20.95;72.38;100150.34;5008489;28;20054;-58
2022/06/19 03:46:48;;;;;;;13.57;6.00;;;;;;;20.99;72.38;100153.53;5000156;28;20054;-56
2022/06/19 03:49:15;;;;;;;11.52;5.35;;;;;;;21.03;72.31;100140.63;5005417;28;20517;-54
2022/06/19 03:51:42;;;;;;;10.77;5.55;;;;;;;21.06;72.21;100134.94;5006094;28;20060;-56
2022/06/19 03:54:10;;;;;;;9.85;5.03;;;;;;;21.07;71.66;100137.44;5006877;28;20060;-52
2022/06/19 03:56:38;;;;;;;7.45;5.00;;;;;;;21.10;71.74;100139.78;5011606;28;20057;-54
2022/06/19 03:59:12;;;;;;;9.63;5.20;;;;;;;21.15;71.45;100134.75;5008606;28;20080;-51
2022/06/19 04:01:40;;;;;;;24.60;6.35;;;;;;;21.18;71.50;100128.22;5011928;28;20520;-55
2022/06/19 04:04:09;;;;;;;10.93;5.97;;;;;;;21.23;71.12;100129.38;5009904;28;20054;-58
2022/06/19 04:06:40;;;;;;;7.68;5.00;;;;;;;21.27;71.16;100131.72;5001032;28;20153;-54
2022/06/19 04:09:10;;;;;;;13.02;5.55;;;;;;;21.30;71.15;100131.34;5004880;28;20050;-55
2022/06/19 04:11:38;;;;;;;14.60;6.03;;;;;;;21.33;70.58;100125.69;5000466;28;20060;-54
2022/06/19 04:14:05;;;;;;;14.25;5.25;;;;;;;21.38;70.48;100123.31;5006527;28;20510;-54
2022/06/19 04:16:33;;;;;;;9.85;5.93;;;;;;;21.43;70.74;100127.19;5006124;28;20053;-55
2022/06/19 04:19:02;;;;;;;13.50;6.10;;;;;;;21.45;70.52;100124.31;5008894;28;20053;-55
2022/06/19 04:21:32;;;;;;;9.75;5.70;;;;;;;21.47;70.66;100120.44;5008296;28;20065;-58
2022/06/19 04:24:03;;;;;;;12.75;6.43;;;;;;;21.51;70.29;100109.41;5005295;28;20060;-58
2022/06/19 04:26:33;;;;;;;11.68;6.35;;;;;;;21.53;70.14;100096.69;5007461;28;20054;-54
2022/06/19 04:29:01;;;;;;;10.00;5.05;;;;;;;21.56;70.46;100099.81;5004725;28;20355;-55
2022/06/19 04:31:28;;;;;;;8.38;5.93;;;;;;;21.57;69.72;100079.22;5005712;28;20064;-57
2022/06/19 04:33:55;;;;;;;13.38;6.82;;;;;;;21.60;69.75;100078.88;5012608;28;20522;-56
2022/06/19 04:36:25;;;;;;;10.95;6.15;;;;;;;21.65;70.07;100077.34;5007437;28;20072;-56
2022/06/19 04:38:54;;;;;;;9.10;6.25;;;;;;;21.70;69.58;100084.84;5003751;28;20069;-56
2022/06/19 04:41:36;;;;;;;9.27;5.93;;;;;;;21.73;69.79;100069.28;5005975;28;20064;-56
2022/06/19 04:44:06;;;;;;;11.20;6.25;;;;;;;21.76;69.44;100073.44;5004847;28;20064;-53
2022/06/19 04:46:33;;;;;;;12.93;7.22;;;;;;;21.79;69.51;100081.13;5006480;28;20062;-58
2022/06/19 04:49:00;;;;;;;10.45;5.88;;;;;;;21.80;69.84;100074.78;5015515;28;20065;-53
2022/06/19 04:51:27;;;;;;;16.95;5.75;;;;;;;21.79;69.48;100073.09;5005450;28;20065;-56
2022/06/19 04:53:55;;;;;;;10.35;6.28;;;;;;;21.86;69.76;100089.31;5003448;28;20045;-56
2022/06/19 04:56:22;;;;;;;10.70;6.00;;;;;;;21.92;69.83;100094.78;5006151;28;20088;-57
2022/06/19 04:58:50;;;;;;;11.45;6.15;;;;;;;21.96;69.48;100089.91;5014637;28;20055;-57
2022/06/19 05:01:29;;;;;;;15.15;6.90;;;;;;;22.05;69.62;100082.66;5007029;28;20529;-56
2022/06/19 05:03:59;;;;;;;17.98;7.70;;;;;;;22.12;69.05;100084.47;5009911;28;20061;-56
2022/06/19 05:06:27;;;;;;;12.85;6.80;;;;;;;22.18;68.62;100082.94;5005456;28;20517;-56
2022/06/19 05:08:55;;;;;;;11.00;6.75;;;;;;;22.22;69.03;100068.97;5008217;28;20056;-55
2022/06/19 05:11:23;;;;;;;10.63;7.13;;;;;;;22.29;68.17;100074.47;5003895;28;20042;-55
2022/06/19 05:13:50;;;;;;;14.88;6.80;;;;;;;22.31;68.05;100069.75;5003395;28;20057;-56
2022/06/19 05:16:20;;;;;;;14.75;6.78;;;;;;;22.36;67.62;100069.22;5009121;28;20410;-56
2022/06/19 05:18:48;;;;;;;11.40;7.10;;;;;;;;;;5017739;28;20054;-53
2022/06/19 05:21:21;;;;;;;16.67;7.05;;;;;;;22.48;67.08;100059.72;5005805;28;20132;-56
2022/06/19 05:23:49;;;;;;;11.73;7.30;;;;;;;22.55;66.85;100057.97;5010028;28;20046;-59
2022/06/19 05:26:24;;;;;;;13.43;6.78;;;;;;;22.65;66.33;100047.84;5006538;28;20053;-61
2022/06/19 05:28:53;;;;;;;13.68;6.95;;;;;;;22.73;66.29;100042.38;5004843;28;20050;-57
2022/06/19 05:31:20;;;;;;;14.30;7.80;;;;;;;22.81;65.85;100035.25;5004835;28;20167;-56
2022/06/19 05:33:48;;;;;;;21.73;7.60;;;;;;;22.86;65.67;100031.00;5006719;28;20522;-57
2022/06/19 05:36:15;;;;;;;15.80;7.45;;;;;;;22.95;64.55;100029.91;5004453;28;20176;-56
2022/06/19 05:38:43;;;;;;;15.40;7.25;;;;;;;23.04;64.51;100030.66;5003271;28;20045;-56
2022/06/19 05:41:10;;;;;;;14.30;7.90;;;;;;;23.16;63.69;100028.34;5009517;28;20057;-56
2022/06/19 05:43:37;;;;;;;15.93;8.10;;;;;;;23.24;62.77;100030.94;5010839;28;20075;-55
2022/06/19 05:46:14;;;;;;;13.68;6.88;;;;;;;23.35;61.62;100026.94;5001958;28;20053;-57
2022/06/19 05:48:41;;;;;;;17.55;7.07;;;;;;;23.41;61.24;100010.88;5008840;28;20053;-57
2022/06/19 05:51:11;;;;;;;18.20;7.00;;;;;;;23.53;59.95;100010.41;5008999;28;20050;-57
2022/06/19 05:53:40;;;;;;;13.48;6.25;;;;;;;23.65;59.73;100000.88;5015321;28;20060;-56
2022/06/19 05:56:08;;;;;;;16.17;7.03;;;;;;;23.74;58.32;99989.81;5009479;28;20266;-57
2022/06/19 05:58:36;;;;;;;14.25;7.05;;;;;;;23.90;57.83;99990.56;5016526;28;20037;-56
2022/06/19 06:01:04;;;;;;;16.05;6.55;;;;;;;24.02;57.17;99989.03;5011404;28;20117;-56
2022/06/19 06:03:32;;;;;;;15.40;6.25;;;;;;;24.12;56.25;99986.84;5010546;28;20058;-57
2022/06/19 06:06:00;;;;;;;26.58;7.40;;;;;;;24.24;55.90;99979.91;5010561;28;20061;-52
2022/06/19 06:08:28;;;;;;;19.10;6.53;;;;;;;24.39;55.56;99981.69;5012204;28;20069;-53
2022/06/19 06:10:55;;;;;;;14.98;6.30;;;;;;;24.49;55.08;99983.00;5010824;28;20451;-56
2022/06/19 06:13:23;;;;;;;18.30;7.22;;;;;;;24.66;53.82;99983.53;5012285;28;20050;-54
2022/06/19 06:15:50;;;;;;;20.83;7.78;;;;;;;24.76;53.74;99983.19;5006491;28;20518;-58
2022/06/19 06:18:17;;;;;;;18.83;6.80;;;;;;;24.90;53.62;99978.69;5011313;28;20143;-55
2022/06/19 06:20:44;;;;;;;17.23;5.68;;;;;;;25.06;52.82;99980.25;5007001;28;20049;-56
2022/06/19 06:23:11;;;;;;;12.23;6.50;;;;;;;25.10;52.19;99965.38;5008951;28;20064;-58
2022/06/19 06:25:42;;;;;;;19.70;6.90;;;;;;;25.20;51.81;99955.03;5005216;28;20061;-58
2022/06/19 06:28:14;;;;;;;17.27;6.03;;;;;;;25.30;51.25;99957.34;5005777;28;20094;-56
2022/06/19 06:30:41;;;;;;;15.32;6.10;;;;;;;25.44;51.07;99950.97;5007339;28;20413;-57
2022/06/19 06:33:08;;;;;;;18.92;6.00;;;;;;;25.55;50.80;99936.91;5009706;28;20152;-55
2022/06/19 06:35:35;;;;;;;21.35;6.70;;;;;;;25.66;50.57;99941.69;5008525;28;20049;-55
2022/06/19 06:38:02;;;;;;;19.45;6.28;;;;;;;25.79;49.59;99932.81;5007794;28;20054;-56
2022/06/19 06:40:29;;;;;;;19.35;7.03;;;;;;;25.92;49.44;99934.69;5011131;28;20053;-55
2022/06/19 06:42:57;;;;;;;17.13;6.47;;;;;;;26.08;48.77;99928.06;5005617;28;20046;-53
2022/06/19 06:45:24;;;;;;;19.10;6.30;;;;;;;26.21;49.14;99931.56;5007071;28;20061;-54
2022/06/19 06:47:51;;;;;;;14.20;6.10;;;;;;;26.33;47.44;99920.13;5005577;28;20045;-55
2022/06/19 06:50:19;;;;;;;12.95;6.35;;;;;;;26.39;47.77;99908.50;5007056;28;20537;-54
2022/06/19 06:52:46;;;;;;;16.08;6.13;;;;;;;26.54;47.14;99911.00;5006755;28;20055;-54
2022/06/19 06:55:14;;;;;;;19.50;6.72;;;;;;;26.68;46.46;99915.31;5008825;28;20054;-57
2022/06/19 06:57:42;;;;;;;14.38;5.85;;;;;;;26.77;46.14;99906.75;5009892;28;20058;-56
2022/06/19 07:00:14;;;;;;;24.02;6.35;;;;;;;26.89;45.91;99903.41;5012718;28;20385;-57
2022/06/19 07:02:41;;;;;;;18.80;7.03;;;;;;;26.97;46.08;99900.44;5010746;28;20394;-54
2022/06/19 07:05:08;;;;;;;14.90;6.32;;;;;;;27.08;45.57;99898.94;5008395;28;20083;-59
2022/06/19 07:07:36;;;;;;;19.13;6.28;;;;;;;27.21;45.12;99888.91;5009406;28;20053;-60
2022/06/19 07:10:04;;;;;;;14.45;6.10;;;;;;;27.37;44.71;99886.75;5002207;28;20406;-58
2022/06/19 07:12:31;;;;;;;19.65;6.47;;;;;;;27.45;44.08;99891.88;5011790;28;20572;-55
2022/06/19 07:14:58;;;;;;;15.07;6.13;;;;;;;27.61;43.99;99896.78;5005946;28;20066;-54
2022/06/19 07:17:26;;;;;;;18.42;6.85;;;;;;;27.77;43.16;99895.41;5003717;28;20046;-56
2022/06/19 07:19:53;;;;;;;21.40;5.95;;;;;;;27.94;43.08;99884.88;5005360;28;20916;-58
2022/06/19 07:22:20;;;;;;;17.10;6.60;;;;;;;28.07;42.53;99873.94;5006435;28;20181;-53
2022/06/19 07:24:47;;;;;;;16.80;5.82;;;;;;;28.19;42.30;99872.16;5005515;28;20536;-57
2022/06/19 07:27:15;;;;;;;24.52;6.10;;;;;;;28.31;41.72;99876.81;5009159;28;20064;-55
2022/06/19 07:29:44;;;;;;;19.13;6.55;;;;;;;28.39;41.62;99865.72;5005888;28;20050;-55
2022/06/19 07:32:13;;;;;;;16.83;5.28;;;;;;;28.52;41.57;99871.00;5005332;28;20054;-53
2022/06/19 07:34:41;;;;;;;14.25;5.38;;;;;;;28.63;40.54;99872.94;5008351;28;20069;-57
2022/06/19 07:37:17;;;;;;;19.75;5.90;;;;;;;28.72;40.40;99870.75;5001269;28;20046;-57
2022/06/19 07:39:45;;;;;;;18.17;7.30;;;;;;;28.85;39.93;99880.59;5002969;28;20537;-56
2022/06/19 07:42:12;;;;;;;25.00;6.28;;;;;;;29.05;39.96;99874.97;5009280;28;20064;-57
2022/06/19 07:44:40;;;;;;;21.55;5.53;;;;;;;29.22;39.32;99868.63;5006914;28;20056;-58
2022/06/19 07:50:10;;;;;;;17.85;5.75;;;;;;;29.47;38.98;99862.22;5005675;28;20551;-53
2022/06/19 07:52:39;;;;;;;15.57;5.30;;;;;;;29.60;38.44;99863.94;5008731;28;20058;-57
2022/06/19 07:55:07;;;;;;;15.85;4.90;;;;;;;29.71;37.94;99880.22;5002330;28;20396;-57
2022/06/19 07:57:35;;;;;;;18.90;4.80;;;;;;;29.79;37.57;99884.47;5010156;28;20057;-53
2022/06/19 08:00:04;;;;;;;14.32;5.30;;;;;;;29.85;37.73;99885.44;5002765;28;20061;-57
2022/06/19 08:02:32;;;;;;;15.70;4.97;;;;;;;30.07;36.52;99886.50;5001859;28;20093;-54
2022/06/19 08:04:59;;;;;;;23.63;5.15;;;;;;;30.20;37.20;99888.19;5003828;28;20073;-54
2022/06/19 08:07:26;;;;;;;19.75;5.50;;;;;;;30.32;36.19;99886.28;5004610;28;20061;-56
2022/06/19 08:09:53;;;;;;;12.93;4.65;;;;;;;30.32;35.65;99880.88;5005547;28;20522;-55
2022/06/19 08:12:21;;;;;;;12.13;4.15;;;;;;;30.40;35.80;99882.41;5009861;28;20046;-56
2022/06/19 08:14:48;;;;;;;14.70;4.47;;;;;;;30.60;35.87;99888.25;5005601;28;20661;-52
2022/06/19 08:17:15;;;;;;;13.32;4.68;;;;;;;30.75;34.78;99866.84;5006134;28;20046;-53
2022/06/19 08:19:44;;;;;;;14.43;4.97;;;;;;;30.94;34.91;99872.13;5008533;28;20057;-53
2022/06/19 08:22:11;;;;;;;17.23;5.30;;;;;;;31.01;33.92;99878.22;5005475;28;20076;-57
2022/06/19 08:24:38;;;;;;;18.70;5.75;;;;;;;31.17;33.82;99865.75;5003224;28;20073;-55
2022/06/19 08:27:05;;;;;;;13.48;4.47;;;;;;;31.31;34.21;99863.59;5004602;28;20050;-54
2022/06/19 08:29:34;;;;;;;17.85;5.32;;;;;;;31.52;33.44;99857.41;5003530;28;20057;-55
2022/06/19 08:32:01;;;;;;;16.55;4.57;;;;;;;31.67;31.60;99863.13;5004101;28;20038;-57
2022/06/19 08:34:28;;;;;;;20.05;4.63;;;;;;;31.75;32.08;99834.66;5006510;28;20056;-58
2022/06/19 08:36:56;;;;;;;18.80;4.03;;;;;;;31.85;31.02;99843.03;5005040;28;20158;-54
2022/06/19 08:39:24;;;;;;;20.67;4.47;;;;;;;31.98;31.29;99830.97;5007033;28;20530;-58
2022/06/19 08:42:00;;;;;;;19.75;5.53;;;;;;;32.17;30.78;99826.88;5004785;28;20042;-56
2022/06/19 08:44:45;;;;;;;18.17;4.38;;;;;;;32.24;30.34;99835.69;5004395;28;20089;-57
2022/06/19 08:47:20;;;;;;;25.30;4.70;;;;;;;32.24;30.62;99829.38;5002667;28;20060;-58
2022/06/19 08:49:57;;;;;;;19.88;4.85;;;;;;;32.44;30.40;99817.97;5005272;28;20065;-55
2022/06/19 08:52:42;;;;;;;17.83;4.50;;;;;;;32.58;29.57;99829.31;5008020;28;20056;-58
2022/06/19 08:55:27;;;;;;;27.42;5.15;;;;;;;32.58;29.66;99818.41;5006365;28;20058;-56
2022/06/19 08:58:04;;;;;;;19.52;4.43;;;;;;;32.60;29.37;99827.16;5006072;28;20046;-55
2022/06/19 09:00:51;;;;;;;23.83;5.57;;;;;;;32.71;28.86;99828.94;5002478;28;20053;-56
2022/06/19 09:06:50;;;;;;;19.92;4.97;;;;;;;32.83;28.04;99836.94;5024982;28;20038;-57
2022/06/19 09:09:50;;;;;;;28.27;6.65;;;;;;;32.88;27.77;99840.56;5001610;28;20413;-54
2022/06/19 09:12:33;;;;;;;24.98;5.65;;;;;;;32.94;27.24;99820.47;5004442;28;20042;-58
2022/06/19 09:15:13;;;;;;;22.40;5.47;;;;;;;33.07;27.79;99829.34;5005449;28;20062;-58
2022/06/19 09:17:58;;;;;;;25.48;7.00;;;;;;;33.28;26.75;99806.63;5017656;23;20057;-80
2022/06/19 09:20:44;;;;;;;26.52;6.00;;;;;;;33.44;27.00;99815.78;5018639;28;20084;-80
2022/06/19 09:23:49;;;;;;;29.75;6.43;;;;;;;33.50;26.32;99814.72;4994051;28;20042;-81
2022/06/19 09:26:29;;;;;;;22.55;6.40;;;;;;;33.70;26.51;99820.34;5005688;28;20493;-80
2022/06/19 09:29:04;;;;;;;21.27;5.75;;;;;;;33.65;26.49;99830.41;4994703;28;20170;-80
2022/06/19 09:31:37;;;;;;;21.58;5.60;;;;;;;33.70;25.58;99831.28;4978404;28;20056;-78
2022/06/19 09:34:07;;;;;;;36.70;7.47;;;;;;;33.64;25.72;99821.41;5004875;28;20042;-80
2022/06/19 09:36:46;;;;;;;29.88;8.07;;;;;;;33.73;25.23;99803.47;5009302;28;20092;-80
2022/06/19 09:39:27;;;;;;;29.13;5.82;;;;;;;33.63;25.44;99814.28;4999727;28;20523;-80
2022/06/19 09:42:06;;;;;;;32.60;6.32;;;;;;;33.68;25.22;99818.94;4989944;28;20069;-80
2022/06/19 09:44:53;;;;;;;33.33;7.43;;;;;;;33.71;25.38;99789.22;4987094;28;20058;-79
2022/06/19 09:47:27;;;;;;;41.97;7.45;;;;;;;33.82;25.36;99783.81;4989176;28;20376;-81
2022/06/19 09:50:02;;;;;;;23.77;6.57;;;;;;;33.95;25.27;99792.44;4994347;28;20055;-79
2022/06/19 09:52:34;;;;;;;31.13;6.78;;;;;;;34.06;24.49;99774.19;4995413;28;20049;-80
2022/06/19 09:55:09;;;;;;;25.25;7.45;;;;;;;34.14;24.69;99786.50;4986985;28;21215;-80
2022/06/19 09:57:54;;;;;;;32.25;8.02;;;;;;;34.22;24.73;99775.91;4978803;28;20051;-80
2022/06/19 10:00:27;;;;;;;27.20;5.97;;;;;;;34.39;24.37;99785.78;5002738;28;20110;-78
2022/06/19 10:03:18;;;;;;;30.63;6.18;;;;;;;34.42;24.13;99788.00;5011453;28;20073;-80
2022/06/19 10:06:19;;;;;;;25.70;5.75;;;;;;;34.40;23.93;99812.00;4991137;28;20134;-80
2022/06/19 10:08:50;;;;;;;48.53;8.20;;;;;;;34.38;23.95;99786.88;4995318;28;20042;-81
2022/06/19 10:11:27;;;;;;;33.83;5.70;;;;;;;34.35;23.91;99796.41;4982845;28;20069;-81
2022/06/19 10:14:04;;;;;;;38.72;7.22;;;;;;;34.42;23.77;99823.50;4976698;28;20150;-81
2022/06/19 10:16:51;;;;;;;28.58;5.53;;;;;;;34.34;23.83;99793.97;4990679;28;20050;-81
2022/06/19 10:19:43;;;;;;;25.95;4.72;;;;;;;34.36;23.63;99783.56;4977738;28;20058;-80
2022/06/19 10:22:35;;;;;;;19.23;4.30;;;;;;;34.39;24.20;99797.53;4993877;28;20050;-81
2022/06/19 10:25:11;;;;;;;33.95;5.90;;;;;;;34.35;24.04;99766.34;4985763;28;20050;-79
2022/06/19 10:27:56;;;;;;;23.23;5.50;;;;;;;34.61;24.05;99785.63;4997712;28;20056;-80
2022/06/19 10:30:25;;;;;;;18.95;5.32;;;;;;;34.68;23.74;99762.41;4998625;28;20452;-77
2022/06/19 10:33:11;;;;;;;17.38;4.97;;;;;;;34.75;23.85;99759.38;4980197;28;20525;-78
2022/06/19 10:35:48;;;;;;;20.67;4.53;;;;;;;35.01;23.84;99752.91;4988729;28;20076;-79
2022/06/19 10:38:40;;;;;;;27.63;6.07;;;;;;;35.14;23.99;99765.22;4980419;28;20065;-78
2022/06/19 10:44:40;;;;;;;19.45;4.93;;;;;;;35.11;23.75;99775.88;5000690;28;20050;-77
2022/06/19 10:47:19;;;;;;;24.55;6.80;;;;;;;35.05;23.56;99768.78;4994534;28;20059;-78
2022/06/19 10:49:54;;;;;;;21.38;4.55;;;;;;;35.18;23.29;99755.38;4978111;28;20172;-79
2022/06/19 10:52:43;;;;;;;23.20;4.65;;;;;;;35.44;23.84;99747.13;4961082;28;20070;-79
2022/06/19 10:55:16;;;;;;;25.05;5.00;;;;;;;35.62;23.38;99749.34;4993085;28;20083;-79
2022/06/19 10:57:55;;;;;;;27.48;6.05;;;;;;;35.65;23.19;99740.53;4964901;28;20145;-78
2022/06/19 11:00:22;;;;;;;29.33;7.00;;;;;;;35.82;22.84;99736.69;4991410;28;20056;-78
2022/06/19 11:06:02;;;;;;;25.73;4.80;;;;;;;35.95;22.87;99736.09;4988124;28;20682;-78
2022/06/19 11:08:35;;;;;;;23.48;5.50;;;;;;;36.00;22.46;99733.34;4994640;28;20050;-77
2022/06/19 11:11:02;;;;;;;21.85;4.93;;;;;;;35.92;22.54;99731.16;4991828;28;20098;-79
2022/06/19 11:13:54;;;;;;;19.98;4.50;;;;;;;35.82;23.01;99733.94;4978876;28;20034;-78
2022/06/19 11:16:22;;;;;;;15.55;4.50;;;;;;;36.12;22.77;99722.91;4992822;28;20050;-79
2022/06/19 11:18:51;;;;;;;19.63;5.32;;;;;;;36.31;23.03;99727.75;4994073;28;20309;-79
2022/06/19 11:21:22;;;;;;;15.68;4.72;;;;;;;36.36;22.27;99700.28;4991678;28;20061;-78
2022/06/19 11:23:53;;;;;;;23.75;5.05;;;;;;;36.36;22.27;99697.56;4984019;28;20114;-78
2022/06/19 11:26:24;;;;;;;17.33;5.50;;;;;;;36.64;22.45;99702.31;4998712;28;20151;-78
2022/06/19 11:29:08;;;;;;;19.63;5.15;;;;;;;36.55;22.42;99701.28;4998547;28;20061;-80
2022/06/19 11:31:40;;;;;;;18.23;4.90;;;;;;;36.79;22.32;99706.06;4993518;28;20281;-79
2022/06/19 11:38:05;;;;;;;22.40;4.95;;;;;;;36.75;22.13;99712.13;4991435;28;20022;-80
2022/06/19 11:40:36;;;;;;;24.80;5.18;;;;;;;36.60;21.81;99714.16;4992935;28;20141;-81
2022/06/19 11:43:05;;;;;;;23.83;5.57;;;;;;;36.97;22.08;99716.34;4965848;28;20112;-80
2022/06/19 11:45:37;;;;;;;23.45;5.05;;;;;;;37.10;21.59;99712.94;4983470;28;20381;-80
2022/06/19 11:48:05;;;;;;;24.77;5.50;;;;;;;36.94;21.66;99734.22;5005733;28;20042;-79
2022/06/19 11:50:32;;;;;;;19.85;5.80;;;;;;;36.92;21.86;99730.13;4988414;28;20059;-80
2022/06/19 11:53:03;;;;;;;22.58;4.97;;;;;;;37.08;21.97;99715.19;4995257;28;20050;-79
2022/06/19 11:55:36;;;;;;;18.50;5.55;;;;;;;37.36;21.72;99729.19;4984064;28;20106;-79
2022/06/19 11:58:30;;;;;;;32.78;5.80;;;;;;;37.59;23.51;99725.69;4990053;28;20031;-81
2022/06/19 12:01:03;;;;;;;19.25;6.43;;;;;;;37.58;24.57;99718.56;4975219;28;20077;-80
2022/06/19 12:03:55;;;;;;;22.27;6.32;;;;;;;37.22;26.57;99731.78;5008258;28;20102;-80